sensor_id;sensor_type;location;lat;lon;timestamp;temperature;humidity
19340;HTU21D;9804;52.350;6.684;2024-03-07T00:01:20;7.43;-6.00
19340;HTU21D;9804;52.350;6.684;2024-03-07T00:03:46;7.45;-6.00
19340;HTU21D;9804;52.350;6.684;2024-03-07T00:06:11;7.41;-6.00
19340;HTU21D;9804;52.350;6.684;2024-03-07T00:08:36;7.37;-6.00
19340;HTU21D;9804;52.350;6.684;2024-03-07T00:11:02;7.33;-6.00
19340;HTU21D;9804;52.350;6.684;2024-03-07T00:13:27;7.28;-6.00
19340;HTU21D;9804;52.350;6.684;2024-03-07T00:15:53;7.22;-6.00
19340;HTU21D;9804;52.350;6.684;2024-03-07T00:18:19;7.13;-6.00
19340;HTU21D;9804;52.350;6.684;2024-03-07T00:20:44;7.03;-6.00
19340;HTU21D;9804;52.350;6.684;2024-03-07T00:23:09;6.96;-6.00
19340;HTU21D;9804;52.350;6.684;2024-03-07T00:25:35;6.84;-6.00
19340;HTU21D;9804;52.350;6.684;2024-03-07T00:28:01;6.73;-6.00
19340;HTU21D;9804;52.350;6.684;2024-03-07T00:30:29;6.64;-6.00
19340;HTU21D;9804;52.350;6.684;2024-03-07T00:32:55;6.58;-6.00
19340;HTU21D;9804;52.350;6.684;2024-03-07T00:35:21;6.59;-6.00
19340;HTU21D;9804;52.350;6.684;2024-03-07T00:37:47;6.56;-6.00
19340;HTU21D;9804;52.350;6.684;2024-03-07T00:40:13;6.49;-6.00
19340;HTU21D;9804;52.350;6.684;2024-03-07T00:42:38;6.45;-6.00
19340;HTU21D;9804;52.350;6.684;2024-03-07T00:45:04;6.44;-6.00
19340;HTU21D;9804;52.350;6.684;2024-03-07T00:47:30;6.42;-6.00
19340;HTU21D;9804;52.350;6.684;2024-03-07T00:49:57;6.37;-6.00
19340;HTU21D;9804;52.350;6.684;2024-03-07T00:52:22;6.34;-6.00
19340;HTU21D;9804;52.350;6.684;2024-03-07T00:54:48;6.30;-6.00
19340;HTU21D;9804;52.350;6.684;2024-03-07T00:57:15;6.29;-6.00
19340;HTU21D;9804;52.350;6.684;2024-03-07T00:59:40;6.22;-6.00
19340;HTU21D;9804;52.350;6.684;2024-03-07T01:02:05;6.23;-6.00
19340;HTU21D;9804;52.350;6.684;2024-03-07T01:04:32;6.25;-6.00
19340;HTU21D;9804;52.350;6.684;2024-03-07T01:06:59;6.23;-6.00
19340;HTU21D;9804;52.350;6.684;2024-03-07T01:09:25;6.28;-6.00
19340;HTU21D;9804;52.350;6.684;2024-03-07T01:11:51;6.25;-6.00
19340;HTU21D;9804;52.350;6.684;2024-03-07T01:14:16;6.26;-6.00
19340;HTU21D;9804;52.350;6.684;2024-03-07T01:16:41;6.33;-6.00
19340;HTU21D;9804;52.350;6.684;2024-03-07T01:19:07;6.31;-6.00
19340;HTU21D;9804;52.350;6.684;2024-03-07T01:21:34;6.33;-6.00
19340;HTU21D;9804;52.350;6.684;2024-03-07T01:24:00;6.31;-6.00
19340;HTU21D;9804;52.350;6.684;2024-03-07T01:26:28;6.33;-6.00
19340;HTU21D;9804;52.350;6.684;2024-03-07T01:28:53;6.43;-6.00
19340;HTU21D;9804;52.350;6.684;2024-03-07T01:31:21;6.43;-6.00
19340;HTU21D;9804;52.350;6.684;2024-03-07T01:33:47;6.48;-6.00
19340;HTU21D;9804;52.350;6.684;2024-03-07T01:36:12;6.46;-6.00
19340;HTU21D;9804;52.350;6.684;2024-03-07T01:38:38;6.64;-6.00
19340;HTU21D;9804;52.350;6.684;2024-03-07T01:41:03;6.69;-6.00
19340;HTU21D;9804;52.350;6.684;2024-03-07T01:43:29;6.65;-6.00
19340;HTU21D;9804;52.350;6.684;2024-03-07T01:45:57;6.71;-6.00
19340;HTU21D;9804;52.350;6.684;2024-03-07T01:48:28;6.71;-6.00
19340;HTU21D;9804;52.350;6.684;2024-03-07T01:50:58;6.57;-6.00
19340;HTU21D;9804;52.350;6.684;2024-03-07T01:53:25;6.63;-6.00
19340;HTU21D;9804;52.350;6.684;2024-03-07T01:55:51;6.64;-6.00
19340;HTU21D;9804;52.350;6.684;2024-03-07T01:58:19;6.66;-6.00
19340;HTU21D;9804;52.350;6.684;2024-03-07T02:00:45;6.67;-6.00
19340;HTU21D;9804;52.350;6.684;2024-03-07T02:03:12;6.57;-6.00
19340;HTU21D;9804;52.350;6.684;2024-03-07T02:05:39;6.69;-6.00
19340;HTU21D;9804;52.350;6.684;2024-03-07T02:08:05;6.59;-6.00
19340;HTU21D;9804;52.350;6.684;2024-03-07T02:10:30;6.58;-6.00
19340;HTU21D;9804;52.350;6.684;2024-03-07T02:12:55;6.57;-6.00
19340;HTU21D;9804;52.350;6.684;2024-03-07T02:15:21;6.53;-6.00
19340;HTU21D;9804;52.350;6.684;2024-03-07T02:17:46;6.44;-6.00
19340;HTU21D;9804;52.350;6.684;2024-03-07T02:20:12;6.55;-6.00
19340;HTU21D;9804;52.350;6.684;2024-03-07T02:22:38;6.60;-6.00
19340;HTU21D;9804;52.350;6.684;2024-03-07T02:25:04;6.44;-6.00
19340;HTU21D;9804;52.350;6.684;2024-03-07T02:27:30;6.57;-6.00
19340;HTU21D;9804;52.350;6.684;2024-03-07T02:29:55;6.46;-6.00
19340;HTU21D;9804;52.350;6.684;2024-03-07T02:32:21;6.51;-6.00
19340;HTU21D;9804;52.350;6.684;2024-03-07T02:34:46;6.53;-6.00
19340;HTU21D;9804;52.350;6.684;2024-03-07T02:37:12;6.52;-6.00
19340;HTU21D;9804;52.350;6.684;2024-03-07T02:39:38;6.37;-6.00
19340;HTU21D;9804;52.350;6.684;2024-03-07T02:42:04;6.38;-6.00
19340;HTU21D;9804;52.350;6.684;2024-03-07T02:44:29;6.42;-6.00
19340;HTU21D;9804;52.350;6.684;2024-03-07T02:46:57;6.33;-6.00
19340;HTU21D;9804;52.350;6.684;2024-03-07T02:49:22;6.29;-6.00
19340;HTU21D;9804;52.350;6.684;2024-03-07T02:51:48;6.23;-6.00
19340;HTU21D;9804;52.350;6.684;2024-03-07T02:54:13;6.27;-6.00
19340;HTU21D;9804;52.350;6.684;2024-03-07T02:56:39;6.26;-6.00
19340;HTU21D;9804;52.350;6.684;2024-03-07T02:59:04;6.21;-6.00
19340;HTU21D;9804;52.350;6.684;2024-03-07T03:01:29;6.22;-6.00
19340;HTU21D;9804;52.350;6.684;2024-03-07T03:03:55;6.13;-6.00
19340;HTU21D;9804;52.350;6.684;2024-03-07T03:06:20;6.10;-6.00
19340;HTU21D;9804;52.350;6.684;2024-03-07T03:08:46;6.05;-6.00
19340;HTU21D;9804;52.350;6.684;2024-03-07T03:11:12;5.99;-6.00
19340;HTU21D;9804;52.350;6.684;2024-03-07T03:13:39;5.93;-6.00
19340;HTU21D;9804;52.350;6.684;2024-03-07T03:16:05;5.90;-6.00
19340;HTU21D;9804;52.350;6.684;2024-03-07T03:18:33;5.91;-6.00
19340;HTU21D;9804;52.350;6.684;2024-03-07T03:20:59;5.90;-6.00
19340;HTU21D;9804;52.350;6.684;2024-03-07T03:23:25;5.84;-6.00
19340;HTU21D;9804;52.350;6.684;2024-03-07T03:25:50;5.86;-6.00
19340;HTU21D;9804;52.350;6.684;2024-03-07T03:28:16;5.86;-6.00
19340;HTU21D;9804;52.350;6.684;2024-03-07T03:30:41;5.84;-6.00
19340;HTU21D;9804;52.350;6.684;2024-03-07T03:33:08;5.92;-6.00
19340;HTU21D;9804;52.350;6.684;2024-03-07T03:35:34;5.80;-6.00
19340;HTU21D;9804;52.350;6.684;2024-03-07T03:38:00;5.72;-6.00
19340;HTU21D;9804;52.350;6.684;2024-03-07T03:40:25;5.70;-6.00
19340;HTU21D;9804;52.350;6.684;2024-03-07T03:42:51;5.65;-6.00
19340;HTU21D;9804;52.350;6.684;2024-03-07T03:45:17;5.65;-6.00
19340;HTU21D;9804;52.350;6.684;2024-03-07T03:47:43;5.72;-6.00
19340;HTU21D;9804;52.350;6.684;2024-03-07T03:50:10;5.68;-6.00
19340;HTU21D;9804;52.350;6.684;2024-03-07T03:52:36;5.74;-6.00
19340;HTU21D;9804;52.350;6.684;2024-03-07T03:55:03;5.57;-6.00
19340;HTU21D;9804;52.350;6.684;2024-03-07T03:57:31;5.51;-6.00
19340;HTU21D;9804;52.350;6.684;2024-03-07T03:59:57;5.59;-6.00
19340;HTU21D;9804;52.350;6.684;2024-03-07T04:02:23;5.66;-6.00
19340;HTU21D;9804;52.350;6.684;2024-03-07T04:04:49;5.51;-6.00
19340;HTU21D;9804;52.350;6.684;2024-03-07T04:07:15;5.55;-6.00
19340;HTU21D;9804;52.350;6.684;2024-03-07T04:09:42;5.54;-6.00
19340;HTU21D;9804;52.350;6.684;2024-03-07T04:12:07;5.50;-6.00
19340;HTU21D;9804;52.350;6.684;2024-03-07T04:14:42;5.50;-6.00
19340;HTU21D;9804;52.350;6.684;2024-03-07T04:17:09;5.50;-6.00
19340;HTU21D;9804;52.350;6.684;2024-03-07T04:19:35;5.47;-6.00
19340;HTU21D;9804;52.350;6.684;2024-03-07T04:22:01;5.41;-6.00
19340;HTU21D;9804;52.350;6.684;2024-03-07T04:24:29;5.46;-6.00
19340;HTU21D;9804;52.350;6.684;2024-03-07T04:26:55;5.38;-6.00
19340;HTU21D;9804;52.350;6.684;2024-03-07T04:29:20;5.40;-6.00
19340;HTU21D;9804;52.350;6.684;2024-03-07T04:31:46;5.46;-6.00
19340;HTU21D;9804;52.350;6.684;2024-03-07T04:34:11;5.32;-6.00
19340;HTU21D;9804;52.350;6.684;2024-03-07T04:36:36;5.47;-6.00
19340;HTU21D;9804;52.350;6.684;2024-03-07T04:39:02;5.37;-6.00
19340;HTU21D;9804;52.350;6.684;2024-03-07T04:41:29;5.39;-6.00
19340;HTU21D;9804;52.350;6.684;2024-03-07T04:43:55;5.40;-6.00
19340;HTU21D;9804;52.350;6.684;2024-03-07T04:46:20;5.38;-6.00
19340;HTU21D;9804;52.350;6.684;2024-03-07T04:48:45;5.42;-6.00
19340;HTU21D;9804;52.350;6.684;2024-03-07T04:51:11;5.25;-6.00
19340;HTU21D;9804;52.350;6.684;2024-03-07T04:53:36;5.26;-6.00
19340;HTU21D;9804;52.350;6.684;2024-03-07T04:56:07;5.27;-6.00
19340;HTU21D;9804;52.350;6.684;2024-03-07T04:58:35;5.13;-6.00
19340;HTU21D;9804;52.350;6.684;2024-03-07T05:01:01;5.19;-6.00
19340;HTU21D;9804;52.350;6.684;2024-03-07T05:03:27;5.25;-6.00
19340;HTU21D;9804;52.350;6.684;2024-03-07T05:05:53;5.27;-6.00
19340;HTU21D;9804;52.350;6.684;2024-03-07T05:08:18;5.21;-6.00
19340;HTU21D;9804;52.350;6.684;2024-03-07T05:10:43;5.15;-6.00
19340;HTU21D;9804;52.350;6.684;2024-03-07T05:13:09;5.19;-6.00
19340;HTU21D;9804;52.350;6.684;2024-03-07T05:15:34;5.12;-6.00
19340;HTU21D;9804;52.350;6.684;2024-03-07T05:18:00;5.11;-6.00
19340;HTU21D;9804;52.350;6.684;2024-03-07T05:20:25;4.98;-6.00
19340;HTU21D;9804;52.350;6.684;2024-03-07T05:22:53;5.01;-6.00
19340;HTU21D;9804;52.350;6.684;2024-03-07T05:25:19;5.07;-6.00
19340;HTU21D;9804;52.350;6.684;2024-03-07T05:27:46;5.01;-6.00
19340;HTU21D;9804;52.350;6.684;2024-03-07T05:30:12;4.92;-6.00
19340;HTU21D;9804;52.350;6.684;2024-03-07T05:32:39;4.88;-6.00
19340;HTU21D;9804;52.350;6.684;2024-03-07T05:35:05;4.83;-6.00
19340;HTU21D;9804;52.350;6.684;2024-03-07T05:37:31;4.86;-6.00
19340;HTU21D;9804;52.350;6.684;2024-03-07T05:39:57;4.66;-6.00
19340;HTU21D;9804;52.350;6.684;2024-03-07T05:42:23;4.73;-6.00
19340;HTU21D;9804;52.350;6.684;2024-03-07T05:44:50;4.82;-6.00
19340;HTU21D;9804;52.350;6.684;2024-03-07T05:47:16;4.78;-6.00
19340;HTU21D;9804;52.350;6.684;2024-03-07T05:49:42;4.68;-6.00
19340;HTU21D;9804;52.350;6.684;2024-03-07T05:52:08;4.81;-6.00
19340;HTU21D;9804;52.350;6.684;2024-03-07T05:54:34;4.61;-6.00
19340;HTU21D;9804;52.350;6.684;2024-03-07T05:57:00;4.71;-6.00
19340;HTU21D;9804;52.350;6.684;2024-03-07T05:59:26;4.64;-6.00
19340;HTU21D;9804;52.350;6.684;2024-03-07T06:01:53;4.57;-6.00
19340;HTU21D;9804;52.350;6.684;2024-03-07T06:04:19;4.50;-6.00
19340;HTU21D;9804;52.350;6.684;2024-03-07T06:06:46;4.37;-6.00
19340;HTU21D;9804;52.350;6.684;2024-03-07T06:09:13;4.47;-6.00
19340;HTU21D;9804;52.350;6.684;2024-03-07T06:11:39;4.45;-6.00
19340;HTU21D;9804;52.350;6.684;2024-03-07T06:14:08;4.53;-6.00
19340;HTU21D;9804;52.350;6.684;2024-03-07T06:16:36;4.54;-6.00
19340;HTU21D;9804;52.350;6.684;2024-03-07T06:19:04;4.51;-6.00
19340;HTU21D;9804;52.350;6.684;2024-03-07T06:21:29;4.53;-6.00
19340;HTU21D;9804;52.350;6.684;2024-03-07T06:23:59;4.53;-6.00
19340;HTU21D;9804;52.350;6.684;2024-03-07T06:26:34;4.62;-6.00
19340;HTU21D;9804;52.350;6.684;2024-03-07T06:29:15;4.61;-6.00
19340;HTU21D;9804;52.350;6.684;2024-03-07T06:31:44;4.67;-6.00
19340;HTU21D;9804;52.350;6.684;2024-03-07T06:34:12;4.62;-6.00
19340;HTU21D;9804;52.350;6.684;2024-03-07T06:36:41;4.50;-6.00
19340;HTU21D;9804;52.350;6.684;2024-03-07T06:39:07;4.59;-6.00
19340;HTU21D;9804;52.350;6.684;2024-03-07T06:41:35;4.58;-6.00
19340;HTU21D;9804;52.350;6.684;2024-03-07T06:44:01;4.52;-6.00
19340;HTU21D;9804;52.350;6.684;2024-03-07T06:46:27;4.64;-6.00
19340;HTU21D;9804;52.350;6.684;2024-03-07T06:48:53;4.58;-6.00
19340;HTU21D;9804;52.350;6.684;2024-03-07T06:51:19;4.68;-6.00
19340;HTU21D;9804;52.350;6.684;2024-03-07T06:53:45;4.81;-6.00
19340;HTU21D;9804;52.350;6.684;2024-03-07T06:56:12;4.76;-6.00
19340;HTU21D;9804;52.350;6.684;2024-03-07T06:58:38;4.67;-6.00
19340;HTU21D;9804;52.350;6.684;2024-03-07T07:01:03;4.93;-6.00
19340;HTU21D;9804;52.350;6.684;2024-03-07T07:03:32;4.88;-6.00
19340;HTU21D;9804;52.350;6.684;2024-03-07T07:05:58;4.96;-6.00
19340;HTU21D;9804;52.350;6.684;2024-03-07T07:08:24;5.11;-6.00
19340;HTU21D;9804;52.350;6.684;2024-03-07T07:10:49;4.98;-6.00
19340;HTU21D;9804;52.350;6.684;2024-03-07T07:13:15;5.11;-6.00
19340;HTU21D;9804;52.350;6.684;2024-03-07T07:15:40;5.18;-6.00
19340;HTU21D;9804;52.350;6.684;2024-03-07T07:18:06;5.24;-6.00
19340;HTU21D;9804;52.350;6.684;2024-03-07T07:20:33;5.23;-6.00
19340;HTU21D;9804;52.350;6.684;2024-03-07T07:22:59;5.28;-6.00
19340;HTU21D;9804;52.350;6.684;2024-03-07T07:25:27;5.28;-6.00
19340;HTU21D;9804;52.350;6.684;2024-03-07T07:27:53;5.33;-6.00
19340;HTU21D;9804;52.350;6.684;2024-03-07T07:30:20;5.24;-6.00
19340;HTU21D;9804;52.350;6.684;2024-03-07T07:32:50;5.45;-6.00
19340;HTU21D;9804;52.350;6.684;2024-03-07T07:35:16;5.41;-6.00
19340;HTU21D;9804;52.350;6.684;2024-03-07T07:37:43;5.41;-6.00
19340;HTU21D;9804;52.350;6.684;2024-03-07T07:40:11;5.55;-6.00
19340;HTU21D;9804;52.350;6.684;2024-03-07T07:42:44;5.60;-6.00
19340;HTU21D;9804;52.350;6.684;2024-03-07T07:45:10;5.66;-6.00
19340;HTU21D;9804;52.350;6.684;2024-03-07T07:47:39;5.62;-6.00
19340;HTU21D;9804;52.350;6.684;2024-03-07T07:50:09;5.77;-6.00
19340;HTU21D;9804;52.350;6.684;2024-03-07T07:52:53;5.96;-6.00
19340;HTU21D;9804;52.350;6.684;2024-03-07T07:55:20;5.94;-6.00
19340;HTU21D;9804;52.350;6.684;2024-03-07T07:57:48;5.98;-6.00
19340;HTU21D;9804;52.350;6.684;2024-03-07T08:00:15;6.08;-6.00
19340;HTU21D;9804;52.350;6.684;2024-03-07T08:02:54;5.97;-6.00
19340;HTU21D;9804;52.350;6.684;2024-03-07T08:05:24;6.11;-6.00
19340;HTU21D;9804;52.350;6.684;2024-03-07T08:07:51;5.86;-6.00
19340;HTU21D;9804;52.350;6.684;2024-03-07T08:10:20;6.04;-6.00
19340;HTU21D;9804;52.350;6.684;2024-03-07T08:12:48;6.12;-6.00
19340;HTU21D;9804;52.350;6.684;2024-03-07T08:15:14;6.17;-6.00
19340;HTU21D;9804;52.350;6.684;2024-03-07T08:17:44;6.39;-6.00
19340;HTU21D;9804;52.350;6.684;2024-03-07T08:20:14;6.49;-6.00
19340;HTU21D;9804;52.350;6.684;2024-03-07T08:22:42;6.72;-6.00
19340;HTU21D;9804;52.350;6.684;2024-03-07T08:25:11;6.76;-6.00
19340;HTU21D;9804;52.350;6.684;2024-03-07T08:27:38;6.48;-6.00
19340;HTU21D;9804;52.350;6.684;2024-03-07T08:30:05;6.55;-6.00
19340;HTU21D;9804;52.350;6.684;2024-03-07T08:32:39;6.54;-6.00
19340;HTU21D;9804;52.350;6.684;2024-03-07T08:35:05;6.79;-6.00
19340;HTU21D;9804;52.350;6.684;2024-03-07T08:37:35;6.78;-6.00
19340;HTU21D;9804;52.350;6.684;2024-03-07T08:40:02;6.94;-6.00
19340;HTU21D;9804;52.350;6.684;2024-03-07T08:42:30;7.24;-6.00
19340;HTU21D;9804;52.350;6.684;2024-03-07T08:44:57;7.16;-6.00
19340;HTU21D;9804;52.350;6.684;2024-03-07T08:47:23;7.07;-6.00
19340;HTU21D;9804;52.350;6.684;2024-03-07T08:49:48;7.08;-6.00
19340;HTU21D;9804;52.350;6.684;2024-03-07T08:52:14;7.05;-6.00
19340;HTU21D;9804;52.350;6.684;2024-03-07T08:54:39;7.19;-6.00
19340;HTU21D;9804;52.350;6.684;2024-03-07T08:57:05;7.24;-6.00
19340;HTU21D;9804;52.350;6.684;2024-03-07T08:59:32;7.29;-6.00
19340;HTU21D;9804;52.350;6.684;2024-03-07T09:01:58;7.49;-6.00
19340;HTU21D;9804;52.350;6.684;2024-03-07T09:04:27;7.60;-6.00
19340;HTU21D;9804;52.350;6.684;2024-03-07T09:06:54;7.40;-6.00
19340;HTU21D;9804;52.350;6.684;2024-03-07T09:09:19;7.48;-6.00
19340;HTU21D;9804;52.350;6.684;2024-03-07T09:11:45;7.41;-6.00
19340;HTU21D;9804;52.350;6.684;2024-03-07T09:14:11;7.41;-6.00
19340;HTU21D;9804;52.350;6.684;2024-03-07T09:16:36;7.10;-6.00
19340;HTU21D;9804;52.350;6.684;2024-03-07T09:19:02;7.10;-6.00
19340;HTU21D;9804;52.350;6.684;2024-03-07T09:21:28;7.04;-6.00
19340;HTU21D;9804;52.350;6.684;2024-03-07T09:23:55;7.31;-6.00
19340;HTU21D;9804;52.350;6.684;2024-03-07T09:26:20;7.41;-6.00
19340;HTU21D;9804;52.350;6.684;2024-03-07T09:28:45;7.74;-6.00
19340;HTU21D;9804;52.350;6.684;2024-03-07T09:31:14;7.54;-6.00
19340;HTU21D;9804;52.350;6.684;2024-03-07T09:33:40;7.39;-6.00
19340;HTU21D;9804;52.350;6.684;2024-03-07T09:36:05;7.59;-6.00
19340;HTU21D;9804;52.350;6.684;2024-03-07T09:38:32;7.40;-6.00
19340;HTU21D;9804;52.350;6.684;2024-03-07T09:40:57;7.29;-6.00
19340;HTU21D;9804;52.350;6.684;2024-03-07T09:43:27;7.52;-6.00
19340;HTU21D;9804;52.350;6.684;2024-03-07T09:45:55;7.82;-6.00
19340;HTU21D;9804;52.350;6.684;2024-03-07T09:48:21;7.77;-6.00
19340;HTU21D;9804;52.350;6.684;2024-03-07T09:50:52;7.81;-6.00
19340;HTU21D;9804;52.350;6.684;2024-03-07T09:53:20;7.65;-6.00
19340;HTU21D;9804;52.350;6.684;2024-03-07T09:55:46;7.75;-6.00
19340;HTU21D;9804;52.350;6.684;2024-03-07T09:58:12;7.75;-6.00
19340;HTU21D;9804;52.350;6.684;2024-03-07T10:00:40;7.99;-6.00
19340;HTU21D;9804;52.350;6.684;2024-03-07T10:03:08;8.28;-6.00
19340;HTU21D;9804;52.350;6.684;2024-03-07T10:05:34;8.24;-6.00
19340;HTU21D;9804;52.350;6.684;2024-03-07T10:08:00;8.24;-6.00
19340;HTU21D;9804;52.350;6.684;2024-03-07T10:10:25;8.08;-6.00
19340;HTU21D;9804;52.350;6.684;2024-03-07T10:12:51;8.56;-6.00
19340;HTU21D;9804;52.350;6.684;2024-03-07T10:15:21;8.76;-6.00
19340;HTU21D;9804;52.350;6.684;2024-03-07T10:17:48;8.65;-6.00
19340;HTU21D;9804;52.350;6.684;2024-03-07T10:20:16;8.56;-6.00
19340;HTU21D;9804;52.350;6.684;2024-03-07T10:22:45;8.72;-6.00
19340;HTU21D;9804;52.350;6.684;2024-03-07T10:25:11;8.71;-6.00
19340;HTU21D;9804;52.350;6.684;2024-03-07T10:27:37;8.51;-6.00
19340;HTU21D;9804;52.350;6.684;2024-03-07T10:30:04;8.64;-6.00
19340;HTU21D;9804;52.350;6.684;2024-03-07T10:32:32;8.34;-6.00
19340;HTU21D;9804;52.350;6.684;2024-03-07T10:34:58;8.62;-6.00
19340;HTU21D;9804;52.350;6.684;2024-03-07T10:37:24;8.96;-6.00
19340;HTU21D;9804;52.350;6.684;2024-03-07T10:39:51;8.59;-6.00
19340;HTU21D;9804;52.350;6.684;2024-03-07T10:42:18;8.72;-6.00
19340;HTU21D;9804;52.350;6.684;2024-03-07T10:44:48;8.89;-6.00
19340;HTU21D;9804;52.350;6.684;2024-03-07T10:47:18;9.22;-6.00
19340;HTU21D;9804;52.350;6.684;2024-03-07T10:53:46;9.37;-6.00
19340;HTU21D;9804;52.350;6.684;2024-03-07T11:01:10;9.55;-6.00
19340;HTU21D;9804;52.350;6.684;2024-03-07T11:03:39;9.76;-6.00
19340;HTU21D;9804;52.350;6.684;2024-03-07T11:06:06;10.07;-6.00
19340;HTU21D;9804;52.350;6.684;2024-03-07T11:08:37;9.81;-6.00
19340;HTU21D;9804;52.350;6.684;2024-03-07T11:11:06;9.80;-6.00
19340;HTU21D;9804;52.350;6.684;2024-03-07T11:13:33;9.84;-6.00
19340;HTU21D;9804;52.350;6.684;2024-03-07T11:15:59;9.91;-6.00
19340;HTU21D;9804;52.350;6.684;2024-03-07T11:18:26;10.13;-6.00
19340;HTU21D;9804;52.350;6.684;2024-03-07T11:20:51;10.08;-6.00
19340;HTU21D;9804;52.350;6.684;2024-03-07T11:23:30;10.13;-6.00
19340;HTU21D;9804;52.350;6.684;2024-03-07T11:26:09;10.39;-6.00
19340;HTU21D;9804;52.350;6.684;2024-03-07T11:28:39;10.59;-6.00
19340;HTU21D;9804;52.350;6.684;2024-03-07T11:31:14;10.23;-6.00
19340;HTU21D;9804;52.350;6.684;2024-03-07T11:33:41;10.14;-6.00
19340;HTU21D;9804;52.350;6.684;2024-03-07T11:36:10;10.46;-6.00
19340;HTU21D;9804;52.350;6.684;2024-03-07T11:38:47;10.39;-6.00
19340;HTU21D;9804;52.350;6.684;2024-03-07T11:41:13;9.99;-6.00
19340;HTU21D;9804;52.350;6.684;2024-03-07T11:43:40;9.80;-6.00
19340;HTU21D;9804;52.350;6.684;2024-03-07T11:46:07;9.98;-6.00
19340;HTU21D;9804;52.350;6.684;2024-03-07T11:48:39;10.05;-6.00
19340;HTU21D;9804;52.350;6.684;2024-03-07T11:51:07;9.88;-6.00
19340;HTU21D;9804;52.350;6.684;2024-03-07T11:53:38;9.92;-6.00
19340;HTU21D;9804;52.350;6.684;2024-03-07T11:56:04;10.08;-6.00
19340;HTU21D;9804;52.350;6.684;2024-03-07T11:58:37;10.43;-6.00
19340;HTU21D;9804;52.350;6.684;2024-03-07T12:01:05;10.40;-6.00
19340;HTU21D;9804;52.350;6.684;2024-03-07T12:03:36;10.66;-6.00
19340;HTU21D;9804;52.350;6.684;2024-03-07T12:06:02;10.30;-6.00
19340;HTU21D;9804;52.350;6.684;2024-03-07T12:08:28;10.26;-6.00
19340;HTU21D;9804;52.350;6.684;2024-03-07T12:10:55;10.45;-6.00
19340;HTU21D;9804;52.350;6.684;2024-03-07T12:13:22;10.26;-6.00
19340;HTU21D;9804;52.350;6.684;2024-03-07T12:15:48;10.46;-6.00
19340;HTU21D;9804;52.350;6.684;2024-03-07T12:18:16;10.70;-6.00
19340;HTU21D;9804;52.350;6.684;2024-03-07T12:20:43;10.56;-6.00
19340;HTU21D;9804;52.350;6.684;2024-03-07T12:23:15;10.73;-6.00
19340;HTU21D;9804;52.350;6.684;2024-03-07T12:25:44;10.93;-6.00
19340;HTU21D;9804;52.350;6.684;2024-03-07T12:28:14;11.11;-6.00
19340;HTU21D;9804;52.350;6.684;2024-03-07T12:33:12;10.60;-6.00
19340;HTU21D;9804;52.350;6.684;2024-03-07T12:35:40;10.31;-6.00
19340;HTU21D;9804;52.350;6.684;2024-03-07T12:38:08;10.60;-6.00
19340;HTU21D;9804;52.350;6.684;2024-03-07T12:40:36;10.44;-6.00
19340;HTU21D;9804;52.350;6.684;2024-03-07T12:43:12;10.37;-6.00
19340;HTU21D;9804;52.350;6.684;2024-03-07T12:45:42;10.62;-6.00
19340;HTU21D;9804;52.350;6.684;2024-03-07T12:48:07;10.33;-6.00
19340;HTU21D;9804;52.350;6.684;2024-03-07T12:50:33;10.23;-6.00
19340;HTU21D;9804;52.350;6.684;2024-03-07T12:53:00;10.25;-6.00
19340;HTU21D;9804;52.350;6.684;2024-03-07T12:55:30;10.58;-6.00
19340;HTU21D;9804;52.350;6.684;2024-03-07T12:57:55;10.57;-6.00
19340;HTU21D;9804;52.350;6.684;2024-03-07T13:00:22;10.51;-6.00
19340;HTU21D;9804;52.350;6.684;2024-03-07T13:02:48;10.31;-6.00
19340;HTU21D;9804;52.350;6.684;2024-03-07T13:05:14;10.40;-6.00
19340;HTU21D;9804;52.350;6.684;2024-03-07T13:07:48;10.48;-6.00
19340;HTU21D;9804;52.350;6.684;2024-03-07T13:10:16;10.65;-6.00
19340;HTU21D;9804;52.350;6.684;2024-03-07T13:12:44;10.34;-6.00
19340;HTU21D;9804;52.350;6.684;2024-03-07T13:15:14;10.03;-6.00
19340;HTU21D;9804;52.350;6.684;2024-03-07T13:17:39;9.90;-6.00
19340;HTU21D;9804;52.350;6.684;2024-03-07T13:20:05;10.15;-6.00
19340;HTU21D;9804;52.350;6.684;2024-03-07T13:22:43;9.90;-6.00
19340;HTU21D;9804;52.350;6.684;2024-03-07T13:25:17;9.83;-6.00
19340;HTU21D;9804;52.350;6.684;2024-03-07T13:27:54;9.85;-6.00
19340;HTU21D;9804;52.350;6.684;2024-03-07T13:30:21;10.26;-6.00
19340;HTU21D;9804;52.350;6.684;2024-03-07T13:32:53;10.14;-6.00
19340;HTU21D;9804;52.350;6.684;2024-03-07T13:35:19;10.16;-6.00
19340;HTU21D;9804;52.350;6.684;2024-03-07T13:37:46;9.83;-6.00
19340;HTU21D;9804;52.350;6.684;2024-03-07T13:40:12;9.95;-6.00
19340;HTU21D;9804;52.350;6.684;2024-03-07T13:42:57;10.18;-6.00
19340;HTU21D;9804;52.350;6.684;2024-03-07T13:45:26;10.55;-6.00
19340;HTU21D;9804;52.350;6.684;2024-03-07T13:47:53;10.53;-6.00
19340;HTU21D;9804;52.350;6.684;2024-03-07T13:50:22;10.59;-6.00
19340;HTU21D;9804;52.350;6.684;2024-03-07T13:52:50;10.89;-6.00
19340;HTU21D;9804;52.350;6.684;2024-03-07T13:55:41;11.00;-6.00
19340;HTU21D;9804;52.350;6.684;2024-03-07T14:01:16;10.86;-6.00
19340;HTU21D;9804;52.350;6.684;2024-03-07T14:07:08;10.99;-6.00
19340;HTU21D;9804;52.350;6.684;2024-03-07T14:15:50;10.66;-6.00
19340;HTU21D;9804;52.350;6.684;2024-03-07T14:24:45;11.11;-6.00
19340;HTU21D;9804;52.350;6.684;2024-03-07T14:32:49;11.25;-6.00
19340;HTU21D;9804;52.350;6.684;2024-03-07T14:35:18;11.32;-6.00
19340;HTU21D;9804;52.350;6.684;2024-03-07T14:38:06;10.69;-6.00
19340;HTU21D;9804;52.350;6.684;2024-03-07T14:40:48;10.67;-6.00
19340;HTU21D;9804;52.350;6.684;2024-03-07T14:43:15;10.46;-6.00
19340;HTU21D;9804;52.350;6.684;2024-03-07T14:45:42;10.59;-6.00
19340;HTU21D;9804;52.350;6.684;2024-03-07T14:48:10;10.74;-6.00
19340;HTU21D;9804;52.350;6.684;2024-03-07T14:50:41;10.58;-6.00
19340;HTU21D;9804;52.350;6.684;2024-03-07T14:53:07;10.77;-6.00
19340;HTU21D;9804;52.350;6.684;2024-03-07T14:55:33;10.93;-6.00
19340;HTU21D;9804;52.350;6.684;2024-03-07T14:58:00;10.65;-6.00
19340;HTU21D;9804;52.350;6.684;2024-03-07T15:00:26;10.54;-6.00
19340;HTU21D;9804;52.350;6.684;2024-03-07T15:02:53;10.93;-6.00
19340;HTU21D;9804;52.350;6.684;2024-03-07T15:05:25;10.66;-6.00
19340;HTU21D;9804;52.350;6.684;2024-03-07T15:07:54;10.87;-6.00
19340;HTU21D;9804;52.350;6.684;2024-03-07T15:10:24;10.68;-6.00
19340;HTU21D;9804;52.350;6.684;2024-03-07T15:12:52;10.83;-6.00
19340;HTU21D;9804;52.350;6.684;2024-03-07T15:15:18;10.85;-6.00
19340;HTU21D;9804;52.350;6.684;2024-03-07T15:17:45;10.68;-6.00
19340;HTU21D;9804;52.350;6.684;2024-03-07T15:20:11;10.28;-6.00
19340;HTU21D;9804;52.350;6.684;2024-03-07T15:25:13;10.21;-6.00
19340;HTU21D;9804;52.350;6.684;2024-03-07T15:27:43;10.11;-6.00
19340;HTU21D;9804;52.350;6.684;2024-03-07T15:30:09;10.14;-6.00
19340;HTU21D;9804;52.350;6.684;2024-03-07T15:32:40;10.34;-6.00
19340;HTU21D;9804;52.350;6.684;2024-03-07T15:35:07;10.34;-6.00
19340;HTU21D;9804;52.350;6.684;2024-03-07T15:37:37;10.11;-6.00
19340;HTU21D;9804;52.350;6.684;2024-03-07T15:40:09;10.36;-6.00
19340;HTU21D;9804;52.350;6.684;2024-03-07T15:42:41;10.23;-6.00
19340;HTU21D;9804;52.350;6.684;2024-03-07T15:45:13;10.36;-6.00
19340;HTU21D;9804;52.350;6.684;2024-03-07T15:47:46;10.49;-6.00
19340;HTU21D;9804;52.350;6.684;2024-03-07T15:50:12;10.49;-6.00
19340;HTU21D;9804;52.350;6.684;2024-03-07T15:52:39;10.56;-6.00
19340;HTU21D;9804;52.350;6.684;2024-03-07T15:55:14;10.55;-6.00
19340;HTU21D;9804;52.350;6.684;2024-03-07T15:57:46;10.28;-6.00
19340;HTU21D;9804;52.350;6.684;2024-03-07T16:00:15;10.46;-6.00
19340;HTU21D;9804;52.350;6.684;2024-03-07T16:02:55;10.30;-6.00
19340;HTU21D;9804;52.350;6.684;2024-03-07T16:05:24;10.44;-6.00
19340;HTU21D;9804;52.350;6.684;2024-03-07T16:07:53;10.36;-6.00
19340;HTU21D;9804;52.350;6.684;2024-03-07T16:10:20;10.63;-6.00
19340;HTU21D;9804;52.350;6.684;2024-03-07T16:12:46;10.77;-6.00
19340;HTU21D;9804;52.350;6.684;2024-03-07T16:15:12;10.78;-6.00
19340;HTU21D;9804;52.350;6.684;2024-03-07T16:17:38;10.50;-6.00
19340;HTU21D;9804;52.350;6.684;2024-03-07T16:20:05;10.68;-6.00
19340;HTU21D;9804;52.350;6.684;2024-03-07T16:22:55;10.08;-6.00